Data for 09/19/2010

Time Sea-Level Adjusted Pressure Absolute Pressure Temperature Relative Humidity Dew Point   
(mb) (inHg) (mb) (inHg) (C) (F) (%) (C) (F)
00:05 1018 30.06 847 25.01 9.6 49.4 83 6.8 44.3
00:10 1018 30.06 847 25.01 9.8 49.6 83 7 44.6
00:15 1018 30.06 847 25.01 9.6 49.3 82 6.7 44.1
00:20 1018 30.06 847 25.01 9.5 49.1 83 6.8 44.3
00:25 1018 30.06 847 25.01 9.4 48.9 84 6.9 44.3
00:30 1018 30.06 847 25.01 9.4 48.9 84 6.9 44.3
00:35 1018 30.06 847 25.01 9.4 48.9 85 7 44.6
00:40 1018 30.06 847 25.01 9.2 48.6 84 6.6 43.9
00:45 1018 30.06 847 25.01 9.4 48.9 82 6.5 43.7
00:50 1018 30.06 847 25.01 9.5 49.2 81 6.5 43.7
00:55 1018 30.06 847 25.01 9.7 49.5 80 6.5 43.6
01:00 1018 30.06 847 25.01 9.7 49.4 83 7 44.6
01:05 1018 30.06 847 25.01 9.5 49.1 84 7 44.6
01:10 1018 30.06 847 25.01 9.7 49.5 85 7.3 45.1
01:15 1018 30.06 847 25.01 9.6 49.3 84 7.1 44.8
01:20 1018 30.06 847 25.01 9.7 49.5 84 7.2 44.9
01:25 1018 30.06 847 25.01 9.5 49.2 84 7.1 44.7
01:30 1018 30.06 847 25.01 9.3 48.7 87 7.1 44.8
01:35 1018 30.06 847 25.01 9.5 49.1 83 6.8 44.3
01:40 1018 30.06 847 25.01 9.3 48.8 85 6.9 44.5
01:45 1018 30.06 847 25.01 9.2 48.6 85 6.9 44.5
01:50 1018 30.06 847 25.01 9 48.2 87 7 44.6
01:55 1018 30.06 847 25.01 8.9 48.1 87 6.8 44.3
02:00 1018 30.06 847 25.01 8.9 47.9 88 6.9 44.4
02:05 1018 30.06 847 25.01 8.8 47.9 86 6.6 43.9
02:10 1017 30.03 847 25.01 8.5 47.4 88 6.7 44.1
02:15 1017 30.03 847 25.01 8.5 47.3 87 6.5 43.7
02:20 1017 30.03 847 25.01 8.6 47.5 86 6.4 43.5
02:25 1017 30.03 847 25.01 8.3 46.9 88 6.3 43.4
02:30 1017 30.03 847 25.01 8.4 47.1 86 6.1 43
02:35 1017 30.03 847 25.01 8.4 47.1 86 6.3 43.3
02:40 1017 30.03 847 25.01 8.5 47.2 85 6.1 43.1
02:45 1017 30.03 847 25.01 8.2 46.8 87 6.1 43.1
02:50 1017 30.03 847 25.01 8.3 47 86 6.1 43
02:55 1017 30.03 847 25.01 8.4 47.2 85 6 42.8
03:00 1017 30.03 847 25.01 8.4 47.2 85 6.1 42.9
03:05 1017 30.03 847 25.01 8.4 47.1 85 6.1 42.9
03:10 1017 30.03 847 25.01 8.4 47 85 5.9 42.7
03:15 1017 30.03 846 24.98 8.4 47 85 6 42.8
03:20 1017 30.03 846 24.98 8.2 46.7 86 5.9 42.6
03:25 1017 30.03 846 24.98 8.4 47.1 83 5.6 42.2
03:30 1017 30.03 846 24.98 8.6 47.6 82 5.8 42.4
03:35 1017 30.03 846 24.98 8.9 48 83 6.1 43
03:40 1017 30.03 846 24.98 8.6 47.4 83 5.8 42.5
03:45 1017 30.03 846 24.98 8.4 47 84 5.9 42.6
03:50 1017 30.03 846 24.98 8.3 46.9 85 5.9 42.6
03:55 1017 30.03 846 24.98 8 46.4 85 5.6 42.1
04:00 1017 30.03 846 24.98 7.9 46.2 86 5.7 42.3
04:05 1017 30.03 846 24.98 8.1 46.5 85 5.6 42.1
04:10 1017 30.03 846 24.98 7.9 46.2 86 5.6 42.1
04:15 1017 30.03 846 24.98 7.8 46.1 86 5.6 42.2
04:20 1017 30.03 846 24.98 7.8 46 86 5.5 42
04:25 1016 30 846 24.98 7.6 45.6 86 5.4 41.7
04:30 1016 30 846 24.98 8.1 46.5 82 5.3 41.5
04:35 1016 30 846 24.98 8.7 47.6 81 5.5 42
04:40 1016 30 846 24.98 8.7 47.6 81 5.7 42.2
04:45 1016 30 846 24.98 8.3 47 83 5.6 42.1
04:50 1016 30 846 24.98 8.5 47.2 82 5.6 42
04:55 1016 30 845 24.95 8.6 47.6 81 5.6 42.1
05:00 1016 30 845 24.95 8.6 47.5 80 5.5 41.8
05:05 1016 30 845 24.95 8.6 47.5 81 5.5 41.9
05:10 1016 30 845 24.95 8.4 47.1 82 5.6 42
05:15 1016 30 845 24.95 8.1 46.5 84 5.4 41.8
05:20 1016 30 845 24.95 7.6 45.7 86 5.3 41.6
05:25 1016 30 845 24.95 7.6 45.6 85 5.3 41.5
05:30 1016 30 845 24.95 7.9 46.2 83 5.2 41.3
05:35 1016 30 845 24.95 8.3 46.9 81 5.2 41.4
05:40 1016 30 845 24.95 8 46.3 82 5.1 41.2
05:45 1016 30 845 24.95 7.9 46.1 82 5.1 41.1
05:50 1016 30 845 24.95 7.9 46.1 82 4.9 40.9
05:55 1016 30 845 24.95 8 46.5 82 5.1 41.2
06:00 1016 30 845 24.95 7.8 46.1 83 5.1 41.1
06:05 1016 30 845 24.95 7.5 45.4 84 4.9 40.9
06:10 1016 30 845 24.95 7.3 45.1 85 4.9 40.8
06:15 1016 30 845 24.95 7.2 45 85 4.9 40.8
06:20 1016 30 845 24.95 7.4 45.3 84 4.9 40.8
06:25 1016 30 845 24.95 7.7 45.9 83 5.1 41.1
06:30 1016 30 845 24.95 7.6 45.7 84 5 41
06:35 1016 30 845 24.95 7.4 45.4 84 4.9 40.7
06:40 1016 30 845 24.95 6.9 44.5 86 4.7 40.5
06:45 1016 30 845 24.95 6.5 43.8 87 4.6 40.2
06:50 1016 30 845 24.95 6.4 43.5 89 4.7 40.5
06:55 1016 30 845 24.95 6.8 44.2 86 4.6 40.4
07:00 1016 30 845 24.95 6.8 44.2 87 4.8 40.6
07:05 1016 30 845 24.95 7.2 44.9 84 4.6 40.3
07:10 1016 30 845 24.95 7.4 45.3 83 4.7 40.4
07:15 1016 30 845 24.95 7.4 45.3 83 4.7 40.5
07:20 1016 30 845 24.95 7 44.7 84 4.6 40.3
07:25 1016 30 845 24.95 6.7 44.1 86 4.6 40.2
07:30 1016 30 845 24.95 6.9 44.5 84 4.5 40
07:35 1016 30 845 24.95 6.9 44.5 84 4.5 40
07:40 1016 30 845 24.95 7 44.5 84 4.5 40.1
07:45 1015 29.97 845 24.95 7 44.7 85 4.6 40.3
07:50 1015 29.97 845 24.95 7.1 44.8 84 4.6 40.3
07:55 1015 29.97 845 24.95 7.4 45.4 83 4.7 40.4
08:00 1015 29.97 845 24.95 7.6 45.8 82 4.7 40.5
08:05 1015 29.97 844 24.92 7.9 46.2 81 4.8 40.6
08:10 1015 29.97 844 24.92 7.9 46.3 81 4.9 40.7
08:15 1015 29.97 845 24.95 8.2 46.8 80 5 41
08:20 1015 29.97 844 24.92 8.7 47.6 79 5.2 41.4
08:25 1015 29.97 844 24.92 9.2 48.6 77 5.4 41.8
08:30 1015 29.97 844 24.92 9.6 49.3 75 5.4 41.8
08:35 1015 29.97 844 24.92 10 49.9 75 5.7 42.3
08:40 1015 29.97 844 24.92 10.1 50.3 74 5.8 42.5
08:45 1015 29.97 844 24.92 10.3 50.5 73 5.7 42.2
08:50 1015 29.97 844 24.92 10.6 51.1 71 5.7 42.2
08:55 1015 29.97 844 24.92 11 51.7 70 5.7 42.2
09:00 1015 29.97 844 24.92 11.3 52.3 68 5.7 42.2
09:05 1015 29.97 844 24.92 11.6 52.9 67 5.7 42.3
09:10 1015 29.97 844 24.92 12 53.5 65 5.6 42.1
09:15 1015 29.97 844 24.92 12.1 53.7 65 5.7 42.3
09:20 1015 29.97 844 24.92 12.3 54.1 65 5.9 42.6
09:25 1015 29.97 844 24.92 12.9 55.2 62 5.8 42.4
09:30 1015 29.97 844 24.92 13.3 55.9 60 5.8 42.5
09:35 1015 29.97 844 24.92 13.3 55.9 59 5.6 42
09:40 1015 29.97 844 24.92 13.8 56.9 58 5.8 42.4
09:45 1015 29.97 844 24.92 13.9 56.9 57 5.6 42.1
09:50 1014 29.94 844 24.92 13.9 56.9 59 6 42.8
09:55 1014 29.94 843 24.89 13.9 57 61 6.6 44
10:00 1014 29.94 843 24.89 13.8 56.9 63 7 44.6
10:05 1014 29.94 843 24.89 13.8 56.8 65 7.4 45.3
10:10 1014 29.94 843 24.89 13.9 57.1 65 7.5 45.4
10:15 1014 29.94 843 24.89 14.5 58.1 64 7.7 45.9
10:20 1014 29.94 843 24.89 14.7 58.5 65 8.3 47
10:25 1014 29.94 843 24.89 13.8 56.9 66 7.7 45.9
10:30 1014 29.94 843 24.89 14.5 58 64 7.8 46
10:35 1014 29.94 843 24.89 14.5 58.1 62 7.4 45.2
10:40 1014 29.94 843 24.89 14.6 58.3 64 8 46.4
10:45 1014 29.94 843 24.89 14.8 58.6 63 8 46.3
10:50 1014 29.94 843 24.89 15 59 64 8.3 46.9
10:55 1014 29.94 843 24.89 14.7 58.5 63 7.9 46.2
11:00 1014 29.94 843 24.89 15 59 63 8 46.4
11:05 1014 29.94 843 24.89 14.4 58 65 7.9 46.3
11:10 1013 29.91 843 24.89 14.6 58.3 63 7.7 45.9
11:15 1013 29.91 843 24.89 14.8 58.6 63 7.8 46.1
11:20 1013 29.91 843 24.89 15.8 60.4 62 8.6 47.4
11:25 1013 29.91 843 24.89 16 60.8 58 7.8 46
11:30 1013 29.91 843 24.89 15.7 60.2 63 8.7 47.6
11:35 1013 29.91 842 24.86 15.5 59.9 58 7.5 45.5
11:40 1013 29.91 842 24.86 16.6 61.8 56 7.8 46.1
11:45 1013 29.91 842 24.86 16.4 61.6 57 7.9 46.2
11:50 1013 29.91 842 24.86 17.1 62.8 55 8.1 46.5
11:55 1013 29.91 842 24.86 17.3 63.2 58 9.1 48.3
12:00 1013 29.91 842 24.86 16.9 62.5 57 8.5 47.4
12:05 1013 29.91 842 24.86 17.3 63.1 55 8.3 47
12:10 1013 29.91 842 24.86 16.9 62.3 58 8.7 47.7
12:15 1013 29.91 842 24.86 16.5 61.6 58 8.3 47
12:20 1013 29.91 842 24.86 16.9 62.4 56 8.2 46.8
12:25 1013 29.91 842 24.86 16.9 62.4 58 8.6 47.5
12:30 1013 29.91 842 24.86 17.3 63.1 55 8.1 46.6
12:35 1013 29.91 842 24.86 18.2 64.8 53 8.7 47.6
12:40 1012 29.88 842 24.86 19 66.2 51 8.6 47.5
12:45 1012 29.88 842 24.86 19.2 66.5 52 9.2 48.5
12:50 1012 29.88 842 24.86 18.8 65.9 52 8.8 47.9
12:55 1012 29.88 841 24.83 18.7 65.7 51 8.6 47.4
13:00 1012 29.88 841 24.83 20 67.9 48 8.8 47.8
13:05 1012 29.88 841 24.83 20.1 68.3 50 9.6 49.3
13:10 1012 29.88 841 24.83 20 67.9 47 8.4 47.1
13:15 1012 29.88 841 24.83 20.8 69.4 46 8.9 48
13:20 1012 29.88 841 24.83 20.9 69.7 47 9.3 48.7
13:25 1012 29.88 841 24.83 21.1 70 44 8.6 47.5
13:30 1012 29.88 841 24.83 21.4 70.5 45 9 48.2
13:35 1012 29.88 841 24.83 21.2 70.2 44 8.7 47.6
13:40 1012 29.88 841 24.83 20.9 69.6 46 9.1 48.3
13:45 1012 29.88 841 24.83 21 69.8 44 8.5 47.3
13:50 1011 29.85 841 24.83 21.4 70.6 44 9 48.1
13:55 1011 29.85 841 24.83 21.5 70.6 44 9 48.1
14:00 1011 29.85 841 24.83 22.5 72.5 40 8.5 47.3
14:05 1011 29.85 841 24.83 22.9 73.3 41 9.2 48.5
14:10 1011 29.85 840 24.81 23 73.5 42 9.5 49.1
14:15 1011 29.85 840 24.81 23.6 74.5 40 9.4 48.8
14:20 1011 29.85 840 24.81 23 73.4 44 10.3 50.6
14:25 1011 29.85 840 24.81 23.1 73.6 43 10 49.9
14:30 1011 29.85 840 24.81 22.4 72.3 42 9.2 48.6
14:35 1011 29.85 840 24.81 22.5 72.5 40 8.6 47.4
14:40 1011 29.85 840 24.81 23.4 74.2 41 9.6 49.2
14:45 1011 29.85 840 24.81 23 73.4 41 9.3 48.7
14:50 1011 29.85 840 24.81 23 73.4 39 8.5 47.4
14:55 1011 29.85 840 24.81 23.8 74.8 41 9.8 49.6
15:00 1011 29.85 840 24.81 23.8 74.8 39 9.1 48.4
15:05 1010 29.83 840 24.81 24.2 75.5 37 8.7 47.7
15:10 1010 29.83 840 24.81 24.9 76.8 37 9.3 48.7
15:15 1010 29.83 839 24.78 24.6 76.3 37 9 48.3
15:20 1010 29.83 839 24.78 24.9 76.9 36 8.9 48
15:25 1010 29.83 839 24.78 25.4 77.6 29 6.4 43.5
15:30 1010 29.83 839 24.78 26.1 78.9 22 3.3 37.9
15:35 1010 29.83 839 24.78 27.5 81.5 21 3.6 38.4
15:40 1010 29.83 839 24.78 28.1 82.6 20 3.5 38.4
15:45 1010 29.83 839 24.78 28.9 83.9 17 1.7 35.1
15:50 1010 29.83 839 24.78 29.5 85 19 3.9 39.1
15:55 1010 29.83 839 24.78 29.7 85.5 19 3.7 38.6
16:00 1010 29.83 839 24.78 29.6 85.2 17 2.5 36.5
16:05 1010 29.83 839 24.78 29.3 84.7 16 1.3 34.4
16:10 1010 29.83 839 24.78 29.2 84.5 17 1.9 35.4
16:15 1009 29.8 839 24.78 29.3 84.7 14 -0.4 31.3
16:20 1009 29.8 839 24.78 29.7 85.4 11 -3.1 26.4
16:25 1009 29.8 839 24.78 29 84.3 13 -2 28.4
16:30 1009 29.8 839 24.78 28.9 84.1 13 -1.9 28.6
16:35 1009 29.8 839 24.78 28.8 83.8 11 -3.9 25
16:40 1009 29.8 839 24.78 29 84.2 10 -4.8 23.4
16:45 1009 29.8 839 24.78 28.6 83.6 10 -5.6 21.9
16:50 1009 29.8 838 24.75 28.6 83.4 10 -5.6 21.8
16:55 1009 29.8 838 24.75 28.4 83.1 9 -6.8 19.8
17:00 1009 29.8 838 24.75 28.4 83.1 10 -5.9 21.5
17:05 1009 29.8 838 24.75 28.2 82.7 9 -7.1 19.3
17:10 1009 29.8 838 24.75 28.1 82.5 10 -5.8 21.6
17:15 1009 29.8 838 24.75 28.2 82.7 11 -5.3 22.5
17:20 1009 29.8 838 24.75 27.9 82.3 11 -4.5 23.9
17:25 1009 29.8 838 24.75 27.8 82 11 -5.4 22.3
17:30 1009 29.8 838 24.75 27.7 81.8 12 -4.3 24.2
17:35 1009 29.8 838 24.75 27.8 82 11 -5.3 22.4
17:40 1009 29.8 838 24.75 27.5 81.5 12 -4.5 23.9
17:45 1009 29.8 838 24.75 27.3 81.1 12 -4.7 23.6
17:50 1009 29.8 838 24.75 27.2 81 13 -3.6 25.6
17:55 1009 29.8 838 24.75 27 80.5 12 -4.9 23.2
18:00 1009 29.8 838 24.75 26.8 80.3 10 -7.1 19.3
18:05 1009 29.8 838 24.75 26.9 80.3 10 -6.5 20.4
18:10 1009 29.8 838 24.75 26.6 79.9 11 -6.2 20.8
18:15 1009 29.8 838 24.75 26.3 79.4 12 -5.6 21.8
18:20 1009 29.8 838 24.75 26.1 79 12 -5.2 22.6
18:25 1009 29.8 838 24.75 25.9 78.6 12 -5.5 22.1
18:30 1009 29.8 838 24.75 25.8 78.4 12 -5.2 22.7
18:35 1009 29.8 838 24.75 25.3 77.5 12 -5.6 22
18:40 1009 29.8 838 24.75 25.1 77.1 12 -5.7 21.8
18:45 1009 29.8 838 24.75 24.9 76.8 13 -5.3 22.5
18:50 1009 29.8 838 24.75 24.4 76 14 -5 23.1
18:55 1009 29.8 838 24.75 24.1 75.4 14 -4.6 23.7
19:00 1009 29.8 838 24.75 23.6 74.4 14 -4.9 23.1
19:05 1009 29.8 838 24.75 23.1 73.6 14 -5.3 22.5
19:10 1009 29.8 838 24.75 22.8 73.1 14 -6.2 20.8
19:15 1009 29.8 838 24.75 23.1 73.6 14 -5.8 21.6
19:20 1009 29.8 838 24.75 22.7 72.8 15 -5.1 22.8
19:25 1009 29.8 838 24.75 22.1 71.7 15 -5.8 21.6
19:30 1009 29.8 838 24.75 22 71.5 15 -5.5 22
19:35 1009 29.8 838 24.75 22.2 71.9 17 -3.7 25.3
19:40 1009 29.8 838 24.75 21.6 70.9 24 0.3 32.5
19:45 1009 29.8 838 24.75 21.1 70 29 2.4 36.4
19:50 1009 29.8 838 24.75 20.8 69.4 30 3 37.3
19:55 1009 29.8 838 24.75 20.5 68.9 33 3.8 38.8
20:00 1009 29.8 839 24.78 20.3 68.5 33 3.7 38.6
20:05 1010 29.83 839 24.78 19.8 67.7 36 4.7 40.4
20:10 1010 29.83 839 24.78 19.4 66.9 39 5.2 41.3
20:15 1010 29.83 839 24.78 18.9 66 41 5.3 41.6
20:20 1010 29.83 839 24.78 18.5 65.2 43 5.7 42.3
20:25 1010 29.83 839 24.78 18.2 64.7 44 5.9 42.6
20:30 1010 29.83 839 24.78 17.7 63.8 46 6.1 43
20:35 1010 29.83 839 24.78 17.5 63.4 47 6 42.8
20:40 1010 29.83 839 24.78 17.3 63.1 47 5.9 42.7
20:45 1010 29.83 839 24.78 17.1 62.8 46 5.4 41.8
20:50 1010 29.83 840 24.81 17.3 63.1 47 5.8 42.5
20:55 1011 29.85 840 24.81 17.1 62.8 46 5.6 42.2
21:00 1011 29.85 840 24.81 16.8 62.2 48 5.7 42.3
21:05 1011 29.85 840 24.81 16.4 61.6 48 5.5 41.9
21:10 1011 29.85 840 24.81 16.3 61.3 47 5.2 41.3
21:15 1011 29.85 840 24.81 16.9 62.4 44 4.7 40.5
21:20 1011 29.85 840 24.81 17.4 63.2 45 5.5 41.8
21:25 1011 29.85 840 24.81 17.6 63.6 42 4.7 40.5
21:30 1011 29.85 840 24.81 17.8 64.1 44 5.5 41.9
21:35 1011 29.85 840 24.81 17.4 63.3 45 5.5 42
21:40 1011 29.85 840 24.81 17.3 63.1 44 5.1 41.1
21:45 1011 29.85 840 24.81 17.6 63.6 43 5 41
21:50 1011 29.85 840 24.81 17.6 63.7 44 5.4 41.7
21:55 1011 29.85 840 24.81 17.2 63 45 5.2 41.4
22:00 1011 29.85 840 24.81 17.2 63 44 4.9 40.9
22:05 1011 29.85 840 24.81 17.1 62.7 46 5.4 41.7
22:10 1011 29.85 840 24.81 16.5 61.8 47 5.3 41.5
22:15 1011 29.85 840 24.81 16.4 61.5 48 5.4 41.7
22:20 1011 29.85 840 24.81 16.1 61.1 48 5.2 41.4
22:25 1011 29.85 840 24.81 16.4 61.4 47 5 41
22:30 1011 29.85 840 24.81 16.5 61.7 47 5.3 41.6
22:35 1011 29.85 840 24.81 16.1 61 50 5.8 42.4
22:40 1011 29.85 840 24.81 15.8 60.5 51 5.8 42.4
22:45 1011 29.85 840 24.81 15.5 60 51 5.6 42.1
22:50 1010 29.83 840 24.81 15.9 60.6 49 5.3 41.6
22:55 1010 29.83 840 24.81 15.6 60 49 5.1 41.2
23:00 1010 29.83 839 24.78 15.4 59.8 50 5.1 41.2
23:05 1010 29.83 839 24.78 15.2 59.3 52 5.4 41.7
23:10 1010 29.83 839 24.78 14.8 58.7 53 5.5 41.9
23:15 1010 29.83 839 24.78 14.5 58.2 53 5 41
23:20 1010 29.83 839 24.78 14.4 58 52 4.8 40.6
23:25 1010 29.83 839 24.78 14.6 58.3 52 4.9 40.8
23:30 1010 29.83 839 24.78 14.6 58.3 54 5.4 41.7
23:35 1010 29.83 839 24.78 14.4 57.8 54 5.1 41.3
23:40 1010 29.83 839 24.78 14.8 58.6 51 4.9 40.8
23:45 1010 29.83 839 24.78 14.8 58.7 52 5.2 41.3
23:50 1010 29.83 839 24.78 14.5 58.1 55 5.7 42.2
23:55 1010 29.83 839 24.78 14.1 57.5 55 5.3 41.6
24:00 1009 29.8 839 24.78 14.1 57.4 55 5.2 41.4